Time;durP1;ratioP1;P1;durP2;ratioP2;P2;SDS_P1;SDS_P2;PMS_P1;PMS_P2;Temp;Humidity;BMP_temperature;BMP_pressure;BME280_temperature;BME280_humidity;BME280_pressure;Samples;Min_cycle;Max_cycle;Signal;HPM_P1;HPM_P2
2023/06/04 00:04:00;;;;;;;4.22;1.77;;;20.60;63.30;;;;;;10022088;28;20050;-62
2023/06/04 00:08:51;;;;;;;4.68;1.63;;;20.50;63.30;;;;;;10023115;28;20443;-61
2023/06/04 00:13:42;;;;;;;2.58;1.40;;;20.50;63.20;;;;;;10022651;28;20491;-61
2023/06/04 00:18:33;;;;;;;3.70;1.50;;;20.60;63.00;;;;;;10021481;28;20030;-60
2023/06/04 00:23:23;;;;;;;4.30;1.52;;;20.50;63.10;;;;;;10021332;28;20088;-61
2023/06/04 00:28:14;;;;;;;5.10;1.60;;;20.40;63.20;;;;;;10020854;28;20075;-60
2023/06/04 00:33:05;;;;;;;3.47;1.42;;;20.40;63.10;;;;;;10022387;28;20025;-60
2023/06/04 00:37:59;;;;;;;2.47;1.70;;;20.40;63.00;;;;;;10022110;28;20436;-61
2023/06/04 00:42:49;;;;;;;3.50;1.70;;;20.30;63.20;;;;;;10021871;28;20063;-60
2023/06/04 00:47:40;;;;;;;2.03;1.23;;;20.30;63.30;;;;;;10022561;28;20030;-61
2023/06/04 00:52:31;;;;;;;2.10;1.30;;;20.30;63.20;;;;;;10021644;28;20030;-62
2023/06/04 00:57:22;;;;;;;3.22;1.38;;;20.10;63.50;;;;;;10013530;28;20029;-61
2023/06/04 01:02:23;;;;;;;2.65;1.15;;;20.00;63.50;;;;;;10019435;28;20064;-60
2023/06/04 01:07:15;;;;;;;2.83;1.23;;;20.00;63.60;;;;;;10020294;28;20527;-61
2023/06/04 01:12:07;;;;;;;1.85;1.30;;;20.00;63.60;;;;;;10020160;28;20495;-61
2023/06/04 01:17:16;;;;;;;3.08;1.35;;;19.80;63.80;;;;;;10020768;28;20045;-61
2023/06/04 01:22:20;;;;;;;3.28;1.20;;;19.80;63.70;;;;;;10031258;28;20048;-61
2023/06/04 01:27:12;;;;;;;2.92;1.45;;;19.80;63.80;;;;;;10020723;28;20091;-64
2023/06/04 01:32:03;;;;;;;6.05;1.92;;;19.70;63.90;;;;;;10020447;28;20345;-61
2023/06/04 01:36:54;;;;;;;2.50;1.52;;;19.60;64.00;;;;;;10018460;28;20052;-63
2023/06/04 01:41:44;;;;;;;3.17;1.58;;;19.50;64.20;;;;;;10019897;28;20041;-61
2023/06/04 01:46:35;;;;;;;2.67;1.77;;;19.30;64.50;;;;;;10018068;28;20033;-62
2023/06/04 01:51:26;;;;;;;4.18;1.85;;;19.40;64.40;;;;;;10019592;28;20025;-62
2023/06/04 01:56:17;;;;;;;1.52;1.30;;;19.30;64.40;;;;;;10020101;28;20026;-63
2023/06/04 02:01:09;;;;;;;2.20;1.58;;;19.30;64.50;;;;;;10017485;28;20100;-63
2023/06/04 02:06:00;;;;;;;2.22;1.38;;;19.20;64.70;;;;;;10019521;28;20116;-63
2023/06/04 02:10:52;;;;;;;4.78;1.83;;;19.10;64.80;;;;;;10018942;28;20114;-60
2023/06/04 02:15:43;;;;;;;1.83;1.25;;;19.10;64.80;;;;;;10018025;28;20029;-63
2023/06/04 02:20:33;;;;;;;7.50;1.75;;;19.00;65.00;;;;;;10018540;28;20034;-62
2023/06/04 02:25:24;;;;;;;3.88;1.65;;;19.00;65.50;;;;;;10018984;28;20071;-60
2023/06/04 02:30:16;;;;;;;5.40;1.65;;;18.90;65.10;;;;;;10018216;28;20037;-63
2023/06/04 02:35:07;;;;;;;3.97;2.03;;;18.80;65.30;;;;;;10018985;28;20071;-62
2023/06/04 02:39:58;;;;;;;2.63;1.42;;;18.80;65.40;;;;;;10018038;28;20097;-60
2023/06/04 02:44:49;;;;;;;2.53;1.25;;;18.80;65.30;;;;;;10016820;28;20084;-61
2023/06/04 02:49:40;;;;;;;3.30;1.20;;;18.70;65.40;;;;;;10017882;28;20034;-61
2023/06/04 02:54:30;;;;;;;3.65;1.27;;;18.60;65.70;;;;;;10018274;28;20113;-60
2023/06/04 02:59:21;;;;;;;4.15;1.52;;;18.60;65.60;;;;;;10018065;28;20161;-61
2023/06/04 03:04:14;;;;;;;2.90;1.55;;;18.50;65.60;;;;;;10004508;28;20050;-60
2023/06/04 03:09:05;;;;;;;3.15;1.40;;;18.60;65.40;;;;;;10014361;28;20130;-59
2023/06/04 03:13:56;;;;;;;4.43;2.67;;;18.50;65.60;;;;;;10016122;28;20097;-62
2023/06/04 03:18:46;;;;;;;1.98;1.13;;;18.30;65.80;;;;;;10017770;28;20311;-59
2023/06/04 03:23:37;;;;;;;1.80;1.30;;;18.30;65.80;;;;;;10017368;28;20034;-62
2023/06/04 03:28:28;;;;;;;5.53;1.70;;;18.20;66.00;;;;;;10018314;28;20026;-61
2023/06/04 03:33:19;;;;;;;2.72;2.00;;;18.30;65.80;;;;;;10024823;28;20531;-60
2023/06/04 03:38:10;;;;;;;2.47;1.50;;;18.10;66.10;;;;;;10025353;28;20112;-60
2023/06/04 03:43:00;;;;;;;2.22;1.40;;;18.10;66.10;;;;;;10025142;28;20113;-60
2023/06/04 03:47:51;;;;;;;1.73;1.17;;;18.00;66.00;;;;;;10024473;28;20232;-59
2023/06/04 03:52:42;;;;;;;2.40;1.60;;;17.90;66.20;;;;;;10023914;28;20037;-60
2023/06/04 03:57:32;;;;;;;2.42;1.40;;;18.00;66.70;;;;;;10014789;28;20026;-59
2023/06/04 04:02:23;;;;;;;2.65;1.40;;;18.00;66.00;;;;;;10021536;28;20423;-60
2023/06/04 04:07:15;;;;;;;2.08;1.20;;;18.00;66.00;;;;;;10021565;28;20100;-60
2023/06/04 04:12:06;;;;;;;1.83;1.30;;;18.00;66.00;;;;;;10023358;28;20360;-59
2023/06/04 04:16:56;;;;;;;1.65;1.30;;;18.00;65.90;;;;;;10022282;28;20030;-59
2023/06/04 04:21:50;;;;;;;7.30;2.08;;;18.10;65.90;;;;;;10022735;28;20030;-60
2023/06/04 04:26:42;;;;;;;2.28;1.48;;;18.10;65.70;;;;;;10021143;28;20045;-60
2023/06/04 04:31:36;;;;;;;3.38;1.48;;;18.00;65.90;;;;;;10021719;28;20471;-60
2023/06/04 04:36:26;;;;;;;1.60;1.00;;;17.90;66.20;;;;;;10022288;28;20051;-60
2023/06/04 04:41:17;;;;;;;2.33;1.55;;;18.10;66.00;;;;;;10022008;28;20488;-59
2023/06/04 04:46:08;;;;;;;3.53;1.30;;;17.90;66.40;;;;;;10021365;28;20065;-60
2023/06/04 04:50:58;;;;;;;2.10;1.27;;;18.00;66.30;;;;;;10021238;28;20429;-61
2023/06/04 04:55:49;;;;;;;2.80;1.58;;;18.20;66.00;;;;;;10019945;28;20026;-61
2023/06/04 05:00:40;;;;;;;2.08;1.30;;;18.20;66.10;;;;;;10008451;28;20034;-59
2023/06/04 05:05:32;;;;;;;1.30;0.95;;;18.10;66.20;;;;;;10018261;28;20052;-60
2023/06/04 05:10:22;;;;;;;2.08;1.45;;;18.10;66.20;;;;;;10013768;28;20037;-61
2023/06/04 05:15:14;;;;;;;0.93;0.82;;;18.00;66.20;;;;;;10016479;28;20127;-60
2023/06/04 05:20:05;;;;;;;1.23;0.77;;;18.10;66.10;;;;;;10027036;28;20077;-60
2023/06/04 05:24:59;;;;;;;6.60;1.25;;;18.20;66.00;;;;;;10018812;28;20034;-61
2023/06/04 05:29:49;;;;;;;3.65;1.30;;;18.10;66.30;;;;;;10019991;28;20109;-61
2023/06/04 05:34:40;;;;;;;2.33;1.40;;;18.10;66.50;;;;;;10020358;28;20121;-60
2023/06/04 05:39:31;;;;;;;2.83;1.42;;;18.30;66.20;;;;;;10019980;28;20120;-60
2023/06/04 05:44:21;;;;;;;2.13;1.10;;;18.20;66.10;;;;;;10019919;28;20387;-60
2023/06/04 05:49:12;;;;;;;6.45;2.08;;;18.10;66.50;;;;;;10017876;28;20092;-62
2023/06/04 05:54:03;;;;;;;2.00;1.20;;;18.10;66.40;;;;;;10018931;28;20473;-60
2023/06/04 05:58:54;;;;;;;2.22;1.35;;;18.30;66.10;;;;;;10007306;28;20029;-60
2023/06/04 06:03:44;;;;;;;1.77;1.50;;;18.40;65.80;;;;;;10018634;28;20310;-60
2023/06/04 06:08:35;;;;;;;4.53;1.48;;;18.60;65.70;;;;;;10019422;28;20045;-61
2023/06/04 06:13:26;;;;;;;1.90;1.70;;;18.60;65.80;;;;;;10018895;28;20022;-61
2023/06/04 06:18:16;;;;;;;2.28;1.40;;;18.60;65.80;;;;;;10012996;28;20435;-62
2023/06/04 06:23:07;;;;;;;2.13;1.35;;;18.70;65.80;;;;;;10011147;28;20064;-60
2023/06/04 06:27:58;;;;;;;3.10;1.40;;;19.00;65.90;;;;;;10016140;28;20037;-60
2023/06/04 06:32:49;;;;;;;3.03;1.48;;;18.80;65.80;;;;;;10017003;28;20022;-62
2023/06/04 06:37:41;;;;;;;4.00;1.90;;;18.50;66.40;;;;;;10018904;28;20560;-60
2023/06/04 06:42:33;;;;;;;2.28;1.30;;;18.40;66.50;;;;;;10018452;28;20046;-63
2023/06/04 06:47:24;;;;;;;3.70;1.45;;;18.50;66.40;;;;;;10016758;28;20281;-62
2023/06/04 06:52:18;;;;;;;3.00;1.75;;;18.60;66.40;;;;;;10018788;28;20654;-61
2023/06/04 06:57:09;;;;;;;2.22;1.20;;;18.70;66.40;;;;;;10011804;28;20022;-60
2023/06/04 07:02:00;;;;;;;2.00;1.30;;;18.90;66.40;;;;;;10012861;28;20050;-60
2023/06/04 07:06:50;;;;;;;2.67;1.30;;;19.20;66.00;;;;;;10024113;28;20026;-63
2023/06/04 07:11:41;;;;;;;3.28;1.75;;;19.50;66.00;;;;;;10023791;28;20040;-60
2023/06/04 07:16:32;;;;;;;4.65;2.00;;;19.80;65.80;;;;;;10025685;28;20187;-62
2023/06/04 07:21:23;;;;;;;6.68;2.20;;;19.90;65.70;;;;;;10025082;28;20045;-59
2023/06/04 07:26:14;;;;;;;2.15;1.60;;;19.80;65.90;;;;;;10025375;28;20034;-60
2023/06/04 07:31:05;;;;;;;2.70;1.50;;;19.90;66.00;;;;;;10024586;28;20106;-60
2023/06/04 07:35:55;;;;;;;3.47;1.35;;;19.80;66.20;;;;;;10022988;28;20277;-62
2023/06/04 07:40:47;;;;;;;2.95;1.48;;;19.50;66.40;;;;;;10023828;28;20494;-60
2023/06/04 07:45:38;;;;;;;2.63;2.00;;;19.60;66.20;;;;;;10021964;28;20197;-63
2023/06/04 07:50:28;;;;;;;3.38;1.60;;;19.70;66.10;;;;;;10023427;28;20272;-63
2023/06/04 07:55:19;;;;;;;9.65;1.83;;;20.00;66.00;;;;;;10022830;28;20454;-64
2023/06/04 08:00:11;;;;;;;1.77;1.15;;;20.00;65.80;;;;;;10023157;28;20096;-64
2023/06/04 08:05:02;;;;;;;2.30;1.70;;;20.30;65.70;;;;;;10023086;28;20483;-63
2023/06/04 08:09:52;;;;;;;2.15;1.65;;;20.50;65.70;;;;;;10023261;28;20181;-61
2023/06/04 08:14:43;;;;;;;2.72;1.75;;;20.90;65.40;;;;;;10022257;28;20037;-61
2023/06/04 08:19:34;;;;;;;3.30;1.83;;;21.10;65.20;;;;;;10022272;28;20041;-60
2023/06/04 08:24:24;;;;;;;2.35;1.35;;;21.10;65.50;;;;;;10022151;28;20049;-62
2023/06/04 08:29:15;;;;;;;2.95;1.25;;;21.50;64.80;;;;;;10022168;28;20456;-61
2023/06/04 08:34:06;;;;;;;2.85;1.60;;;21.40;64.80;;;;;;10021732;28;20029;-62
2023/06/04 08:38:57;;;;;;;1.65;1.48;;;21.60;64.90;;;;;;10022220;28;20025;-64
2023/06/04 08:43:49;;;;;;;4.07;1.45;;;21.70;64.60;;;;;;10022353;28;20189;-61
2023/06/04 08:48:39;;;;;;;3.47;2.13;;;21.90;64.60;;;;;;10019660;28;20087;-63
2023/06/04 08:53:31;;;;;;;3.80;1.70;;;22.00;64.50;;;;;;10022363;28;20087;-61
2023/06/04 08:58:22;;;;;;;5.13;1.55;;;22.00;64.70;;;;;;10009367;28;20038;-60
2023/06/04 09:03:15;;;;;;;4.18;1.92;;;22.00;64.60;;;;;;10021674;28;20057;-60
2023/06/04 09:08:08;;;;;;;2.92;1.95;;;22.30;64.40;;;;;;10021295;28;20033;-62
2023/06/04 09:13:03;;;;;;;3.08;1.50;;;22.50;64.20;;;;;;10019409;28;20396;-64
2023/06/04 09:17:53;;;;;;;;;;;22.60;64.00;;;;;;10020788;28;20034;-60
2023/06/04 09:22:44;;;;;;;2.42;1.35;;;22.40;64.30;;;;;;10020690;28;19917;-61
2023/06/04 09:27:41;;;;;;;3.17;1.60;;;22.30;64.50;;;;;;10019220;28;20361;-60
2023/06/04 09:32:33;;;;;;;2.42;1.45;;;22.20;64.40;;;;;;10021125;28;20141;-61
2023/06/04 09:37:24;;;;;;;3.08;1.92;;;22.30;64.60;;;;;;10020545;28;20108;-60
2023/06/04 09:42:15;;;;;;;3.50;2.13;;;22.60;64.10;;;;;;10020183;28;20108;-61
2023/06/04 09:47:06;;;;;;;1.90;1.45;;;22.60;64.20;;;;;;10019660;28;20030;-60
2023/06/04 09:51:57;;;;;;;4.70;2.30;;;22.60;64.30;;;;;;10020229;28;20104;-60
2023/06/04 09:56:47;;;;;;;3.35;1.83;;;22.70;64.40;;;;;;10014950;28;20022;-60
2023/06/04 10:01:41;;;;;;;4.68;2.47;;;22.70;64.30;;;;;;10010570;28;20072;-63
2023/06/04 10:06:35;;;;;;;5.70;2.45;;;22.70;64.50;;;;;;10019352;28;20109;-60
2023/06/04 10:11:34;;;;;;;2.97;1.77;;;22.90;64.30;;;;;;10019340;28;20053;-61
2023/06/04 10:16:26;;;;;;;2.10;1.83;;;23.20;64.10;;;;;;10018322;28;20033;-60
2023/06/04 10:21:18;;;;;;;5.80;2.30;;;23.20;64.00;;;;;;10018436;28;20510;-61
2023/06/04 10:26:09;;;;;;;5.13;2.35;;;23.40;63.70;;;;;;10019016;28;20127;-62
2023/06/04 10:30:59;;;;;;;3.17;2.42;;;23.40;63.70;;;;;;10018225;28;20562;-59
2023/06/04 10:35:53;;;;;;;2.67;1.65;;;23.40;63.80;;;;;;10018163;28;20539;-63
2023/06/04 10:40:44;;;;;;;2.67;1.60;;;23.20;63.90;;;;;;10024913;28;20108;-61
2023/06/04 10:45:35;;;;;;;5.50;1.85;;;23.40;63.70;;;;;;10026843;28;20101;-64
2023/06/04 10:50:26;;;;;;;4.45;2.08;;;23.50;63.50;;;;;;10025785;28;20403;-61
2023/06/04 10:55:17;;;;;;;4.10;2.20;;;23.70;63.30;;;;;;10026362;28;20490;-61
2023/06/04 11:00:10;;;;;;;6.10;3.28;;;23.90;63.20;;;;;;10025802;28;20033;-62
2023/06/04 11:05:06;;;;;;;4.95;2.17;;;24.10;63.00;;;;;;10025500;28;20200;-63
2023/06/04 11:09:57;;;;;;;3.25;1.80;;;24.20;62.60;;;;;;10025583;28;20088;-63
2023/06/04 11:14:58;;;;;;;2.72;2.00;;;24.40;62.60;;;;;;10024012;28;20030;-62
2023/06/04 11:19:49;;;;;;;4.80;2.13;;;24.30;62.40;;;;;;10025513;28;20443;-60
2023/06/04 11:24:40;;;;;;;4.07;1.92;;;24.60;62.10;;;;;;10025996;28;20026;-59
2023/06/04 11:29:30;;;;;;;7.15;3.85;;;24.50;62.20;;;;;;10024556;28;20041;-59
2023/06/04 11:34:29;;;;;;;5.93;2.85;;;24.60;62.10;;;;;;10025120;28;20096;-60
2023/06/04 11:39:21;;;;;;;8.20;2.63;;;24.80;61.80;;;;;;10024522;28;20558;-61
2023/06/04 11:44:13;;;;;;;5.03;2.45;;;25.20;61.70;;;;;;10024551;28;20066;-60
2023/06/04 11:49:04;;;;;;;4.88;2.15;;;25.10;61.50;;;;;;10023847;28;20045;-60
2023/06/04 11:53:55;;;;;;;4.45;2.30;;;25.40;61.40;;;;;;10020364;28;20068;-60
2023/06/04 11:58:46;;;;;;;7.45;2.88;;;25.80;61.00;;;;;;10021849;28;20040;-59
2023/06/04 12:03:39;;;;;;;5.72;2.53;;;26.00;60.90;;;;;;10020367;28;20050;-61
2023/06/04 12:08:29;;;;;;;4.63;2.60;;;26.00;60.60;;;;;;10023415;28;20097;-60
2023/06/04 12:13:20;;;;;;;4.43;2.30;;;26.30;60.60;;;;;;10023006;28;20021;-61
2023/06/04 12:18:11;;;;;;;7.10;2.20;;;26.50;60.30;;;;;;10023414;28;20033;-60
2023/06/04 12:23:02;;;;;;;4.05;2.15;;;26.60;60.10;;;;;;10022103;28;20038;-61
2023/06/04 12:27:53;;;;;;;4.10;2.03;;;26.70;60.00;;;;;;10022655;28;20036;-62
2023/06/04 12:32:45;;;;;;;4.18;2.63;;;26.80;59.50;;;;;;10021381;28;20439;-62
2023/06/04 12:37:35;;;;;;;5.47;2.00;;;27.40;59.70;;;;;;10022152;28;20026;-60
2023/06/04 12:42:27;;;;;;;5.90;2.42;;;27.80;59.10;;;;;;10021009;28;20037;-62
2023/06/04 12:47:18;;;;;;;4.00;2.20;;;28.00;58.90;;;;;;10023018;28;20036;-60
2023/06/04 12:52:09;;;;;;;2.85;2.55;;;28.50;58.30;;;;;;10021700;28;20036;-60
2023/06/04 12:57:00;;;;;;;5.18;2.47;;;29.30;58.20;;;;;;10017475;28;20101;-62
2023/06/04 13:01:50;;;;;;;5.05;2.40;;;30.30;57.20;;;;;;9997140;28;20531;-63
2023/06/04 13:06:41;;;;;;;3.90;2.25;;;30.60;56.30;;;;;;10020557;28;20025;-61
2023/06/04 13:11:32;;;;;;;3.40;1.70;;;31.40;55.50;;;;;;10021035;28;20109;-61
2023/06/04 13:16:22;;;;;;;3.85;2.40;;;31.10;54.50;;;;;;10020652;28;20030;-59
2023/06/04 13:21:13;;;;;;;3.88;1.70;;;31.20;53.80;;;;;;10021004;28;20037;-62
2023/06/04 13:26:04;;;;;;;5.18;2.45;;;31.40;53.20;;;;;;10019138;28;20040;-59
2023/06/04 13:30:54;;;;;;;2.70;2.10;;;32.70;52.60;;;;;;10019842;28;20125;-60
2023/06/04 13:35:45;;;;;;;3.70;2.27;;;33.00;51.70;;;;;;10020336;28;20415;-59
2023/06/04 13:40:36;;;;;;;2.90;2.20;;;32.50;51.30;;;;;;10019946;28;20026;-61
2023/06/04 13:45:27;;;;;;;3.97;2.57;;;32.50;50.80;;;;;;10018308;28;20025;-61
2023/06/04 13:50:17;;;;;;;4.47;2.20;;;32.60;49.90;;;;;;10019823;28;20022;-61
2023/06/04 13:55:09;;;;;;;3.97;2.30;;;32.90;49.80;;;;;;10019940;28;20049;-63
2023/06/04 14:00:03;;;;;;;2.95;2.50;;;33.10;49.00;;;;;;10007723;28;20029;-63
2023/06/04 14:04:54;;;;;;;7.13;3.60;;;32.90;48.40;;;;;;10019568;28;20045;-70
2023/06/04 14:09:45;;;;;;;3.60;2.30;;;34.00;48.00;;;;;;10019486;28;20076;-64
2023/06/04 14:14:36;;;;;;;3.33;2.13;;;34.20;47.40;;;;;;10017805;28;20299;-63
2023/06/04 14:19:27;;;;;;;3.20;2.20;;;33.90;47.20;;;;;;10017998;28;20014;-62
2023/06/04 14:24:17;;;;;;;4.80;2.37;;;33.80;47.20;;;;;;10015474;28;20037;-63
2023/06/04 14:29:08;;;;;;;3.37;2.20;;;34.10;46.60;;;;;;10016685;28;20117;-61
2023/06/04 14:33:59;;;;;;;4.57;2.43;;;33.70;46.40;;;;;;10018503;28;20030;-65
2023/06/04 14:38:49;;;;;;;3.90;2.03;;;33.30;46.50;;;;;;10018416;28;20046;-62
2023/06/04 14:43:40;;;;;;;5.33;2.17;;;33.50;46.00;;;;;;10018778;28;20266;-63
2023/06/04 14:48:31;;;;;;;3.10;2.30;;;33.30;45.80;;;;;;10018792;28;20766;-60
2023/06/04 14:53:22;;;;;;;3.77;2.20;;;33.30;45.70;;;;;;10018338;28;20044;-60
2023/06/04 14:58:13;;;;;;;4.32;2.63;;;33.40;45.50;;;;;;10018189;28;20026;-62
2023/06/04 15:03:05;;;;;;;3.97;1.90;;;33.60;45.60;;;;;;10018072;28;20069;-62
2023/06/04 15:07:55;;;;;;;4.15;2.50;;;33.90;45.30;;;;;;10018151;28;20126;-63
2023/06/04 15:12:46;;;;;;;2.90;2.63;;;34.20;45.40;;;;;;10018019;28;20114;-61
2023/06/04 15:17:37;;;;;;;3.23;1.90;;;34.10;45.40;;;;;;10018147;28;20105;-60
2023/06/04 15:22:27;;;;;;;4.97;2.90;;;33.60;45.50;;;;;;10017653;28;20196;-60
2023/06/04 15:27:18;;;;;;;2.70;2.33;;;33.90;45.40;;;;;;10022097;28;20029;-61
2023/06/04 15:32:09;;;;;;;5.43;2.23;;;34.10;45.10;;;;;;10024732;28;20442;-60
2023/06/04 15:37:00;;;;;;;4.37;2.70;;;33.90;45.10;;;;;;10024935;28;20040;-61
2023/06/04 15:41:50;;;;;;;2.50;2.20;;;33.80;44.90;;;;;;10037455;22;20042;-63
2023/06/04 15:46:41;;;;;;;3.87;2.30;;;34.20;44.70;;;;;;10025057;28;20084;-61
2023/06/04 15:51:31;;;;;;;3.13;2.47;;;34.50;44.50;;;;;;10024409;28;20476;-64
2023/06/04 15:56:23;;;;;;;3.20;2.80;;;34.50;44.30;;;;;;10006720;28;20111;-62
2023/06/04 16:01:13;;;;;;;3.28;2.33;;;35.20;44.00;;;;;;10023085;28;20468;-64
2023/06/04 16:06:04;;;;;;;3.57;2.60;;;35.70;43.50;;;;;;10023991;28;20038;-63
2023/06/04 16:10:55;;;;;;;6.40;2.53;;;36.10;43.20;;;;;;10024249;28;20026;-66
2023/06/04 16:15:45;;;;;;;2.80;2.27;;;36.60;42.80;;;;;;10000709;28;20042;-63
2023/06/04 16:20:36;;;;;;;3.57;1.87;;;36.70;42.20;;;;;;10022882;28;20030;-63
2023/06/04 16:25:27;;;;;;;2.63;2.10;;;37.40;41.60;;;;;;10023292;28;20380;-63
2023/06/04 16:30:17;;;;;;;4.70;2.30;;;37.80;41.30;;;;;;10023219;28;20121;-62
2023/06/04 16:35:10;;;;;;;5.37;2.57;;;36.90;41.10;;;;;;10009371;28;20076;-62
2023/06/04 16:40:01;;;;;;;4.45;2.33;;;34.70;42.80;;;;;;10023602;28;20037;-64
2023/06/04 16:44:51;;;;;;;2.40;2.20;;;36.40;41.40;;;;;;10020060;28;20058;-63
2023/06/04 16:49:42;;;;;;;3.50;2.40;;;36.10;40.90;;;;;;10015648;28;20030;-64
2023/06/04 16:54:33;;;;;;;3.50;2.23;;;36.40;40.80;;;;;;10021176;28;20084;-70
2023/06/04 16:59:25;;;;;;;3.90;2.40;;;36.50;40.60;;;;;;10015709;28;20173;-62
2023/06/04 17:04:16;;;;;;;3.65;2.65;;;36.50;40.30;;;;;;10021639;28;20403;-62
2023/06/04 17:09:06;;;;;;;3.37;2.37;;;36.70;40.10;;;;;;10021764;28;20022;-62
2023/06/04 17:13:57;;;;;;;3.60;2.63;;;36.90;40.00;;;;;;9996393;28;20175;-63
2023/06/04 17:18:48;;;;;;;4.27;2.43;;;37.20;39.80;;;;;;10021186;28;20080;-66
2023/06/04 17:23:39;;;;;;;3.47;2.23;;;36.30;40.00;;;;;;10021420;28;20032;-65
2023/06/04 17:28:30;;;;;;;2.58;1.92;;;36.10;39.80;;;;;;10020479;28;20030;-63
2023/06/04 17:33:20;;;;;;;2.57;2.03;;;35.40;39.80;;;;;;10019814;28;20492;-62
2023/06/04 17:38:11;;;;;;;3.10;2.15;;;34.50;39.70;;;;;;10020928;28;20022;-64
2023/06/04 17:43:02;;;;;;;3.15;2.50;;;33.40;40.10;;;;;;10020748;28;20392;-74
2023/06/04 17:47:53;;;;;;;2.88;2.28;;;33.20;39.90;;;;;;10016088;28;20030;-65
2023/06/04 17:52:46;;;;;;;3.10;2.33;;;32.50;40.10;;;;;;10020506;28;20025;-71
2023/06/04 17:57:37;;;;;;;2.33;1.92;;;30.80;40.90;;;;;;10021096;28;20033;-63
2023/06/04 18:02:27;;;;;;;3.53;2.25;;;30.50;40.80;;;;;;10021011;28;20040;-68
2023/06/04 18:07:19;;;;;;;3.40;2.20;;;29.50;41.20;;;;;;10002779;28;20030;-62
2023/06/04 18:12:10;;;;;;;3.55;1.90;;;28.80;41.70;;;;;;10019644;28;20021;-62
2023/06/04 18:17:01;;;;;;;3.65;1.85;;;28.40;41.80;;;;;;10019272;28;20156;-64
2023/06/04 18:21:52;;;;;;;3.00;2.35;;;28.20;41.90;;;;;;10018025;28;20382;-63
2023/06/04 18:26:42;;;;;;;5.20;2.00;;;27.90;42.00;;;;;;10016778;28;20037;-64
2023/06/04 18:31:33;;;;;;;3.17;2.00;;;27.70;42.30;;;;;;10016875;28;20030;-65
2023/06/04 18:36:23;;;;;;;3.33;2.30;;;27.70;42.30;;;;;;10019375;28;20081;-64
2023/06/04 18:41:15;;;;;;;4.00;1.90;;;27.40;42.60;;;;;;10001070;28;20049;-64
2023/06/04 18:46:05;;;;;;;4.40;2.00;;;27.20;43.00;;;;;;10017372;28;20041;-69
2023/06/04 18:50:56;;;;;;;3.08;2.00;;;27.00;43.10;;;;;;10019931;28;20022;-64
2023/06/04 18:55:47;;;;;;;4.13;2.00;;;26.70;43.30;;;;;;10019151;28;20029;-65
2023/06/04 19:00:37;;;;;;;2.95;2.00;;;26.70;43.50;;;;;;10013626;28;20065;-65
2023/06/04 19:05:28;;;;;;;7.13;1.83;;;26.70;43.50;;;;;;10027462;28;20025;-63
2023/06/04 19:10:19;;;;;;;3.20;2.08;;;26.40;43.70;;;;;;10026734;28;20480;-63
2023/06/04 19:15:11;;;;;;;2.72;1.63;;;26.30;43.90;;;;;;10026237;28;20022;-62
2023/06/04 19:20:01;;;;;;;5.90;1.77;;;26.10;44.10;;;;;;10026449;28;20034;-62
2023/06/04 19:24:52;;;;;;;2.35;1.75;;;26.10;44.20;;;;;;10009200;28;20033;-62
2023/06/04 19:29:45;;;;;;;5.38;2.10;;;26.00;44.30;;;;;;10008401;28;20492;-64
2023/06/04 19:34:36;;;;;;;3.25;1.95;;;25.90;44.40;;;;;;10023489;28;20514;-62
2023/06/04 19:39:27;;;;;;;2.08;1.65;;;25.90;44.70;;;;;;10026134;28;20018;-62
2023/06/04 19:44:18;;;;;;;2.67;1.85;;;25.60;45.00;;;;;;10028267;28;20068;-65
2023/06/04 19:49:08;;;;;;;6.57;2.78;;;25.40;45.10;;;;;;10026823;28;20547;-67
2023/06/04 19:53:59;;;;;;;3.78;2.17;;;25.30;45.30;;;;;;10010505;28;20018;-66
2023/06/04 19:58:50;;;;;;;4.72;1.77;;;25.30;45.50;;;;;;10016375;28;20101;-64
2023/06/04 20:03:41;;;;;;;5.07;2.05;;;25.10;45.50;;;;;;10028559;28;20062;-61
2023/06/04 20:08:34;;;;;;;5.97;2.47;;;25.10;45.60;;;;;;10026209;28;20085;-65
2023/06/04 20:13:25;;;;;;;2.78;1.63;;;25.00;45.80;;;;;;10028633;28;20459;-63
2023/06/04 20:18:16;;;;;;;2.85;1.42;;;24.90;45.90;;;;;;10012082;28;20076;-64
2023/06/04 20:23:06;;;;;;;3.63;1.48;;;24.70;46.10;;;;;;10028071;28;20044;-63
2023/06/04 20:27:57;;;;;;;4.60;1.77;;;24.70;46.20;;;;;;10019762;28;20496;-62
2023/06/04 20:32:53;;;;;;;4.07;1.60;;;24.70;46.30;;;;;;10018304;28;20022;-66
2023/06/04 20:37:43;;;;;;;3.85;2.22;;;24.70;46.30;;;;;;10004592;28;20117;-64
2023/06/04 20:42:34;;;;;;;2.90;1.77;;;24.50;46.40;;;;;;10014327;28;20106;-64
2023/06/04 20:47:25;;;;;;;6.03;2.92;;;24.60;46.50;;;;;;10025548;28;20519;-62
2023/06/04 20:52:16;;;;;;;4.57;1.77;;;24.50;46.60;;;;;;10025700;28;20030;-63
2023/06/04 20:57:07;;;;;;;2.17;1.40;;;24.40;46.80;;;;;;10030052;28;20148;-64
2023/06/04 21:01:58;;;;;;;3.30;1.70;;;24.20;47.10;;;;;;10025902;28;20514;-67
2023/06/04 21:06:49;;;;;;;2.88;1.33;;;24.00;47.40;;;;;;10006414;28;20646;-67
2023/06/04 21:11:39;;;;;;;2.53;1.67;;;24.00;47.50;;;;;;10023938;28;20208;-67
2023/06/04 21:16:30;;;;;;;2.97;1.27;;;24.00;47.50;;;;;;10023477;28;20097;-63
2023/06/04 21:21:21;;;;;;;4.43;1.73;;;23.90;47.80;;;;;;10023733;28;20113;-73
2023/06/04 21:26:11;;;;;;;2.90;1.48;;;23.80;48.00;;;;;;10024122;28;20030;-64
2023/06/04 21:31:02;;;;;;;3.33;1.30;;;23.60;48.20;;;;;;10023565;28;20053;-73
2023/06/04 21:35:53;;;;;;;4.07;1.80;;;23.60;48.30;;;;;;10024326;28;20062;-69
2023/06/04 21:40:43;;;;;;;3.08;1.50;;;23.50;48.50;;;;;;10027378;28;20029;-75
2023/06/04 21:45:34;;;;;;;5.03;1.75;;;23.40;48.70;;;;;;10020804;28;20065;-63
2023/06/04 21:50:25;;;;;;;3.05;1.30;;;23.20;49.10;;;;;;10007401;28;20459;-67
2023/06/04 21:55:15;;;;;;;3.13;1.63;;;23.30;49.10;;;;;;10025835;28;20519;-75
2023/06/04 22:00:07;;;;;;;2.65;1.35;;;23.30;49.20;;;;;;10017026;28;20033;-73
2023/06/04 22:04:58;;;;;;;1.85;1.20;;;23.10;49.50;;;;;;10009453;28;20050;-71
2023/06/04 22:09:49;;;;;;;2.50;1.33;;;23.00;49.70;;;;;;10014648;28;20499;-63
2023/06/04 22:14:39;;;;;;;2.42;1.45;;;22.80;50.00;;;;;;10028009;28;20068;-72
2023/06/04 22:19:30;;;;;;;2.78;1.70;;;22.70;50.10;;;;;;10015969;28;20479;-61
2023/06/04 22:24:21;;;;;;;3.85;1.70;;;22.70;50.10;;;;;;10008188;28;20514;-61
2023/06/04 22:29:12;;;;;;;3.40;1.67;;;22.50;50.50;;;;;;10011087;28;20538;-61
2023/06/04 22:34:02;;;;;;;2.17;1.25;;;22.50;50.70;;;;;;10028028;28;20048;-66
2023/06/04 22:38:53;;;;;;;1.88;1.25;;;22.30;51.10;;;;;;10025493;28;20025;-63
2023/06/04 22:43:44;;;;;;;2.90;1.60;;;22.20;51.10;;;;;;10021375;28;20100;-61
2023/06/04 22:48:34;;;;;;;3.75;1.20;;;22.10;51.30;;;;;;10018997;28;20033;-64
2023/06/04 22:53:26;;;;;;;4.05;1.73;;;22.10;51.40;;;;;;10021871;28;20057;-67
2023/06/04 22:58:17;;;;;;;3.15;1.55;;;22.00;51.40;;;;;;10011119;28;20065;-63
2023/06/04 23:03:08;;;;;;;2.40;1.25;;;22.00;51.60;;;;;;10026973;28;20492;-70
2023/06/04 23:07:59;;;;;;;2.42;1.15;;;21.90;51.70;;;;;;10023791;28;20026;-62
2023/06/04 23:12:50;;;;;;;2.20;1.23;;;21.90;51.90;;;;;;10020628;28;20029;-64
2023/06/04 23:17:41;;;;;;;2.15;1.15;;;21.70;52.20;;;;;;10020496;28;20212;-61
2023/06/04 23:22:32;;;;;;;3.17;1.52;;;21.50;52.50;;;;;;10019502;28;20515;-61
2023/06/04 23:27:22;;;;;;;2.03;1.50;;;21.50;52.80;;;;;;10019104;28;20088;-63
2023/06/04 23:32:13;;;;;;;2.38;1.30;;;21.30;52.80;;;;;;10019864;28;20030;-66
2023/06/04 23:37:04;;;;;;;8.63;1.85;;;21.30;53.00;;;;;;10020120;28;20120;-71
2023/06/04 23:41:54;;;;;;;3.03;1.13;;;21.30;53.20;;;;;;10006510;28;20056;-68
2023/06/04 23:46:45;;;;;;;1.88;1.33;;;21.10;53.40;;;;;;10023640;28;20028;-61
2023/06/04 23:51:36;;;;;;;2.10;1.90;;;21.10;53.70;;;;;;10008705;28;20274;-67
2023/06/04 23:56:26;;;;;;;4.45;2.00;;;20.90;53.90;;;;;;10006845;28;20407;-61
